Terminal Aerodrome Forecast
Issued by NWS Kansas City/Pleasant Hill, MO

Home | Current Version | Previous Version | Text Only | Print | Product List | Glossary On
Versions: 1 2 3 4 5 6 7 8 9 10 11 12 13 14 15 16 17 18 19 20 21 22
000
FTUS43 KEAX 161700
TAFMCI
TAF
KMCI 161724Z 1618/1718 13005KT P6SM SCT030
     FM170300 13007KT P6SM SCT020 OVC050
     FM171100 12006KT P6SM VCSH BKN030 OVC100=

USA.gov is the U.S. government's official web portal to all federal, state and local government web resources and services.